Time;durP1;ratioP1;P1;durP2;ratioP2;P2;SDS_P1;SDS_P2;PMS_P1;PMS_P2;Temp;Humidity;BMP_temperature;BMP_pressure;BME280_temperature;BME280_humidity;BME280_pressure;Samples;Min_cycle;Max_cycle;Signal;HPM_P1;HPM_P2
2022/06/21 00:02:14;;;;;;;8.75;3.85;;;;;;;18.12;78.96;95404.97;5050618;28;20347;-77
2022/06/21 00:04:39;;;;;;;6.70;4.40;;;;;;;17.82;80.52;95402.22;5050175;28;20552;-77
2022/06/21 00:07:06;;;;;;;7.50;4.00;;;;;;;17.95;80.59;95399.72;5049938;28;20045;-77
2022/06/21 00:09:32;;;;;;;8.25;3.65;;;;;;;17.93;80.16;95407.25;5050467;28;20037;-77
2022/06/21 00:11:58;;;;;;;12.35;4.32;;;;;;;17.84;80.27;95402.72;5048243;28;20048;-77
2022/06/21 00:14:23;;;;;;;7.28;4.15;;;;;;;17.76;80.97;95403.50;5049302;28;20112;-77
2022/06/21 00:16:49;;;;;;;7.25;4.07;;;;;;;17.92;80.57;95403.03;5050433;28;20041;-77
2022/06/21 00:19:19;;;;;;;6.80;4.07;;;;;;;17.82;80.53;95407.56;5049832;28;20049;-77
2022/06/21 00:21:45;;;;;;;7.05;4.40;;;;;;;17.70;80.86;95404.78;5043254;28;20510;-77
2022/06/21 00:24:13;;;;;;;8.30;3.90;;;;;;;17.69;80.37;95413.88;5050168;28;20039;-77
2022/06/21 00:26:38;;;;;;;6.15;4.00;;;;;;;17.55;81.27;95413.28;5050329;28;20045;-77
2022/06/21 00:29:04;;;;;;;8.75;3.95;;;;;;;17.62;81.08;95418.88;5048782;28;20037;-76
2022/06/21 00:31:33;;;;;;;6.40;3.90;;;;;;;17.57;82.01;95416.38;5049609;28;20060;-77
2022/06/21 00:34:12;;;;;;;7.53;4.47;;;;;;;17.55;82.35;95418.59;5050500;28;20049;-76
2022/06/21 00:36:38;;;;;;;7.03;4.22;;;;;;;17.35;84.10;95420.78;5049682;28;20502;-77
2022/06/21 00:39:05;;;;;;;8.05;4.43;;;;;;;17.27;84.93;95424.28;5047474;28;20044;-76
2022/06/21 00:41:52;;;;;;;10.68;4.75;;;;;;;17.44;83.97;95424.25;5049596;28;20509;-77
2022/06/21 00:44:32;;;;;;;8.65;4.00;;;;;;;17.23;85.10;95428.66;5050300;28;20048;-77
2022/06/21 00:47:23;;;;;;;6.90;4.07;;;;;;;17.30;84.69;95428.97;5050011;28;20076;-78
2022/06/21 00:49:54;;;;;;;5.20;3.30;;;;;;;17.09;84.66;95424.25;5030997;28;20045;-77
2022/06/21 00:52:47;;;;;;;6.68;3.38;;;;;;;16.90;85.11;95427.22;5046579;28;20041;-77
2022/06/21 00:55:40;;;;;;;6.32;3.38;;;;;;;16.87;85.78;95429.69;5046598;28;20486;-77
2022/06/21 00:58:10;;;;;;;6.68;3.28;;;;;;;16.86;85.79;95422.81;5031669;28;20115;-77
2022/06/21 01:00:39;;;;;;;5.53;3.38;;;;;;;16.71;86.04;95435.47;5027563;28;20044;-77
2022/06/21 01:03:14;;;;;;;5.53;3.05;;;;;;;16.71;85.96;95430.16;5048884;28;20045;-77
2022/06/21 01:05:43;;;;;;;5.72;3.30;;;;;;;16.67;85.76;95429.19;5031831;28;20044;-77
2022/06/21 01:08:12;;;;;;;5.68;3.40;;;;;;;16.52;86.09;95429.63;5042788;28;20045;-77
2022/06/21 01:10:40;;;;;;;8.02;3.10;;;;;;;16.73;85.08;95427.94;5052028;28;20136;-77
2022/06/21 01:13:13;;;;;;;4.70;2.80;;;;;;;16.41;86.34;95432.56;5048248;28;20049;-76
2022/06/21 01:15:43;;;;;;;5.50;2.83;;;;;;;16.41;85.23;95432.56;5052915;28;20069;-78
2022/06/21 01:18:10;;;;;;;4.70;2.78;;;;;;;16.08;86.41;95435.56;5053282;28;20041;-77
2022/06/21 01:20:40;;;;;;;6.97;3.28;;;;;;;15.87;87.06;95439.84;5052708;28;20049;-77
2022/06/21 01:23:33;;;;;;;4.53;2.40;;;;;;;16.00;86.21;95438.97;5046241;28;20533;-78
2022/06/21 01:26:15;;;;;;;5.18;2.50;;;;;;;15.91;85.24;95438.16;5052668;28;20052;-77
2022/06/21 01:28:42;;;;;;;5.60;2.50;;;;;;;15.91;83.83;95435.50;5029032;28;20708;-78
2022/06/21 01:31:08;;;;;;;10.50;2.30;;;;;;;15.63;81.81;95438.28;5032340;28;20052;-77
2022/06/21 01:33:37;;;;;;;5.22;2.15;;;;;;;15.68;80.86;95438.16;5053244;28;20044;-77
2022/06/21 01:36:25;;;;;;;3.55;2.15;;;;;;;15.75;80.12;95438.50;5034108;28;20784;-77
2022/06/21 01:39:02;;;;;;;4.93;2.13;;;;;;;15.68;78.61;95443.47;5021783;28;20384;-77
2022/06/21 01:41:34;;;;;;;7.15;2.30;;;;;;;15.71;78.71;95429.59;5032380;28;20051;-77
2022/06/21 01:44:09;;;;;;;3.45;2.17;;;;;;;15.59;78.94;95434.69;5051145;28;20052;-76
2022/06/21 01:46:35;;;;;;;4.47;1.98;;;;;;;15.56;77.47;95432.63;5034621;28;20086;-77
2022/06/21 01:49:08;;;;;;;4.18;1.90;;;;;;;15.49;76.43;95433.06;5035439;28;20041;-77
2022/06/21 01:51:45;;;;;;;6.80;2.58;;;;;;;15.62;74.79;95433.28;5032095;28;20064;-77
2022/06/21 01:54:15;;;;;;;4.40;1.95;;;;;;;15.68;72.82;95427.53;5035627;28;20414;-77
2022/06/21 01:56:43;;;;;;;5.30;1.80;;;;;;;15.57;71.32;95431.53;5051778;28;20040;-76
2022/06/21 01:59:13;;;;;;;2.42;1.70;;;;;;;15.27;69.17;95428.53;5054898;28;20381;-77
2022/06/21 02:01:47;;;;;;;5.82;1.88;;;;;;;15.31;68.59;95418.88;5059599;28;20056;-76
2022/06/21 02:04:17;;;;;;;3.42;1.80;;;;;;;15.41;67.17;95423.97;5052033;28;20048;-77
2022/06/21 02:06:45;;;;;;;2.25;1.70;;;;;;;15.44;65.79;95416.47;5061761;28;20479;-77
2022/06/21 02:09:48;;;;;;;2.75;1.73;;;;;;;15.28;66.14;95418.72;5036777;28;20047;-77
2022/06/21 02:12:14;;;;;;;3.60;1.60;;;;;;;15.40;66.07;95417.09;5057544;28;20045;-77
2022/06/21 02:14:51;;;;;;;2.88;1.70;;;;;;;15.63;65.92;95417.06;5059546;28;20047;-76
2022/06/21 02:17:22;;;;;;;4.80;1.70;;;;;;;15.57;66.26;95407.66;5056668;28;20099;-77
2022/06/21 02:19:51;;;;;;;3.78;1.60;;;;;;;15.59;66.00;95402.84;5050287;28;20461;-76
2022/06/21 02:22:24;;;;;;;4.00;1.70;;;;;;;15.76;65.25;95413.56;5031756;28;20526;-77
2022/06/21 02:24:51;;;;;;;2.95;1.70;;;;;;;15.70;66.18;95398.06;5050758;28;20044;-77
2022/06/21 02:27:19;;;;;;;2.20;1.60;;;;;;;15.81;66.64;95403.94;5051176;28;20037;-77
2022/06/21 02:29:50;;;;;;;2.95;1.70;;;;;;;15.75;65.87;95404.00;5032870;28;20065;-78
2022/06/21 02:32:25;;;;;;;3.45;2.00;;;;;;;15.50;68.31;95404.66;5051160;28;20037;-78
2022/06/21 02:34:56;;;;;;;3.15;1.67;;;;;;;15.55;68.74;95396.56;5025684;28;20069;-77
2022/06/21 02:37:23;;;;;;;2.88;1.70;;;;;;;15.47;68.71;95394.66;5059464;28;20048;-78
2022/06/21 02:39:50;;;;;;;5.03;1.90;;;;;;;15.35;68.65;95397.88;5056667;28;20044;-78
2022/06/21 02:42:24;;;;;;;2.22;1.50;;;;;;;15.35;69.23;95398.63;5046773;28;20079;-78
2022/06/21 02:44:58;;;;;;;5.78;1.80;;;;;;;15.17;69.30;95397.75;5054629;28;20041;-78
2022/06/21 02:47:28;;;;;;;5.93;1.55;;;;;;;15.19;69.04;95392.16;5039103;28;20123;-77
2022/06/21 03:27:00;;;;;;;2.08;1.50;;;;;;;14.68;71.22;95418.69;5044608;28;20040;-78
2022/06/21 03:29:28;;;;;;;6.45;1.73;;;;;;;14.75;71.19;95425.44;5033112;28;20087;-77
2022/06/21 03:31:54;;;;;;;3.22;1.50;;;;;;;14.82;71.81;95415.22;5051022;28;20037;-77
2022/06/21 03:34:22;;;;;;;5.38;1.63;;;;;;;14.79;72.12;95418.47;5042188;28;20040;-77
2022/06/21 03:36:49;;;;;;;2.35;1.42;;;;;;;14.75;72.24;95417.50;5040087;28;20048;-76
2022/06/21 03:39:19;;;;;;;4.50;1.70;;;;;;;14.85;73.24;95417.28;5050668;28;20246;-76
2022/06/21 03:41:48;;;;;;;2.63;1.67;;;;;;;14.80;72.79;95420.06;5066349;28;20044;-77
2022/06/21 03:44:26;;;;;;;1.98;1.45;;;;;;;14.91;72.75;95429.31;5056963;28;20045;-77
2022/06/21 03:47:07;;;;;;;4.60;1.60;;;;;;;14.96;72.76;95418.63;5052075;28;20516;-77
2022/06/21 03:49:40;;;;;;;2.75;1.40;;;;;;;14.71;73.64;95423.41;5035495;28;20033;-77
2022/06/21 03:52:41;;;;;;;3.72;1.83;;;;;;;14.78;73.63;95422.19;5067950;28;20040;-76
2022/06/21 03:55:12;;;;;;;3.38;1.55;;;;;;;14.98;73.30;95421.75;5057918;28;20045;-76
2022/06/21 03:57:44;;;;;;;3.30;1.80;;;;;;;14.76;73.64;95419.06;5067914;28;20048;-76
2022/06/21 04:00:13;;;;;;;2.30;1.55;;;;;;;14.64;74.75;95417.72;5034562;28;20049;-77
2022/06/21 04:02:49;;;;;;;4.38;1.70;;;;;;;14.72;74.38;95418.88;5064843;28;20422;-77
2022/06/21 04:05:20;;;;;;;5.50;1.83;;;;;;;14.61;74.67;95439.47;5034975;28;20033;-77
2022/06/21 04:08:02;;;;;;;3.67;1.63;;;;;;;14.74;74.48;95427.31;5043808;28;20033;-77
2022/06/21 04:10:57;;;;;;;3.38;1.60;;;;;;;14.87;73.87;95420.44;5034886;28;20036;-78
2022/06/21 04:13:28;;;;;;;;;;;;;;;14.57;75.38;95427.91;5035559;28;20437;-77
2022/06/21 04:15:59;;;;;;;3.58;1.58;;;;;;;14.73;75.76;95431.81;5038242;28;19942;-76
2022/06/21 04:18:42;;;;;;;2.58;1.58;;;;;;;14.83;75.95;95430.06;5049531;28;20072;-76
2022/06/21 04:21:21;;;;;;;4.13;1.55;;;;;;;14.91;74.91;95431.97;5052414;28;20075;-77
2022/06/21 04:24:13;;;;;;;3.08;1.60;;;;;;;14.95;74.52;95422.34;5050003;28;20044;-77
2022/06/21 04:26:59;;;;;;;2.60;1.40;;;;;;;14.73;75.29;95410.63;5065139;28;20044;-76
2022/06/21 04:29:40;;;;;;;5.15;2.10;;;;;;;14.75;75.37;95412.19;5035935;28;20442;-76
2022/06/21 04:32:16;;;;;;;4.57;1.75;;;;;;;14.92;75.72;95412.34;5062317;28;20092;-77
2022/06/21 04:34:46;;;;;;;3.60;1.67;;;;;;;14.71;77.39;95412.00;5054665;28;20498;-78
2022/06/21 04:37:24;;;;;;;2.60;1.55;;;;;;;14.82;76.15;95409.94;5034773;28;20150;-76
2022/06/21 04:39:57;;;;;;;2.40;1.70;;;;;;;14.88;75.17;95412.19;5030421;28;20087;-77
2022/06/21 04:42:39;;;;;;;2.90;1.80;;;;;;;14.81;75.50;95411.00;5041375;28;20041;-77
2022/06/21 04:45:12;;;;;;;3.42;1.92;;;;;;;14.40;77.46;95411.84;5059373;28;20041;-77
2022/06/21 04:47:51;;;;;;;3.70;1.90;;;;;;;14.92;76.00;95412.34;5043351;28;20037;-77
2022/06/21 04:50:39;;;;;;;2.70;1.80;;;;;;;14.65;76.23;95408.72;5057428;28;20399;-77
2022/06/21 04:53:19;;;;;;;4.32;1.60;;;;;;;14.87;75.98;95410.59;5055848;28;20044;-77
2022/06/21 04:56:05;;;;;;;4.40;1.90;;;;;;;14.99;76.12;95407.41;5049699;28;20451;-77
2022/06/21 04:58:31;;;;;;;4.82;2.05;;;;;;;14.84;76.65;95410.41;5060107;28;20078;-77
2022/06/21 05:00:59;;;;;;;4.45;1.90;;;;;;;14.84;75.99;95399.81;5054301;28;20049;-77
2022/06/21 05:03:42;;;;;;;4.20;1.90;;;;;;;14.83;77.17;95406.22;5053517;28;20091;-78
2022/06/21 05:06:11;;;;;;;3.28;1.85;;;;;;;14.50;78.07;95407.13;5034511;28;20044;-78
2022/06/21 05:08:40;;;;;;;6.50;2.45;;;;;;;14.79;76.86;95410.53;5067135;28;20109;-77
2022/06/21 05:11:05;;;;;;;3.53;1.90;;;;;;;14.86;76.56;95408.25;5052207;28;20048;-78
2022/06/21 05:13:37;;;;;;;3.30;2.20;;;;;;;14.90;75.97;95417.94;5059989;28;20037;-77
2022/06/21 05:16:13;;;;;;;4.78;2.20;;;;;;;15.15;76.79;95415.81;5056593;28;20037;-78
2022/06/21 05:18:43;;;;;;;4.30;1.83;;;;;;;14.84;74.30;95405.09;5054165;28;20090;-77
2022/06/21 05:21:14;;;;;;;5.07;1.95;;;;;;;15.16;75.05;95406.00;5052740;28;20512;-76
2022/06/21 05:23:40;;;;;;;4.15;2.22;;;;;;;15.02;73.42;95401.53;5061627;28;20090;-78
2022/06/21 05:26:14;;;;;;;3.05;1.90;;;;;;;15.27;74.72;95402.03;5041913;28;20092;-77
2022/06/21 05:28:51;;;;;;;6.10;2.15;;;;;;;15.15;72.89;95393.81;5051624;28;20233;-78
2022/06/21 05:31:24;;;;;;;6.05;2.00;;;;;;;15.06;73.51;95396.41;5053868;28;20405;-79
2022/06/21 05:33:55;;;;;;;4.78;2.13;;;;;;;15.36;74.06;95410.81;5047138;28;20050;-78
2022/06/21 05:36:27;;;;;;;5.45;2.00;;;;;;;15.16;74.23;95398.81;5053047;28;20037;-77
2022/06/21 05:38:56;;;;;;;5.53;2.13;;;;;;;15.28;74.83;95398.28;5050990;28;20126;-78
2022/06/21 05:41:32;;;;;;;4.80;2.10;;;;;;;15.50;73.50;95396.69;5044733;28;20422;-79
2022/06/21 05:44:08;;;;;;;3.63;2.00;;;;;;;15.28;75.24;95403.56;5054645;28;20126;-81
2022/06/21 05:46:39;;;;;;;7.80;2.47;;;;;;;15.19;73.27;95400.88;5048623;28;20041;-79
2022/06/21 05:49:08;;;;;;;11.75;2.80;;;;;;;15.21;73.23;95403.22;5052223;28;20033;-79
2022/06/21 05:51:34;;;;;;;8.05;2.30;;;;;;;15.24;72.96;95407.91;5033739;28;20050;-79
2022/06/21 05:54:05;;;;;;;6.55;2.65;;;;;;;15.17;73.72;95396.94;5052686;28;20498;-79
2022/06/21 05:56:34;;;;;;;13.75;2.70;;;;;;;15.26;73.62;95395.16;5051624;28;20045;-79
2022/06/21 05:59:02;;;;;;;7.88;2.22;;;;;;;15.02;74.19;95398.88;5034261;28;20036;-78
2022/06/21 06:01:34;;;;;;;4.82;1.98;;;;;;;15.11;73.14;95408.75;5050328;28;20045;-79
2022/06/21 06:04:13;;;;;;;9.35;2.08;;;;;;;15.59;73.36;95414.22;5055093;28;20041;-77
2022/06/21 06:06:43;;;;;;;4.47;1.90;;;;;;;15.36;73.67;95413.47;5053401;28;20041;-79
2022/06/21 06:09:21;;;;;;;10.30;2.20;;;;;;;15.55;73.84;95399.22;5044131;28;20756;-77
2022/06/21 06:12:13;;;;;;;6.05;1.98;;;;;;;15.64;73.27;95405.34;5050782;28;20094;-79
2022/06/21 06:14:47;;;;;;;6.70;2.35;;;;;;;15.40;73.75;95403.81;5051945;28;20098;-77
2022/06/21 06:17:45;;;;;;;11.32;2.28;;;;;;;15.49;74.46;95403.09;5033082;28;20272;-78
2022/06/21 06:20:23;;;;;;;10.65;2.20;;;;;;;15.37;75.85;95401.78;5002239;28;20060;-78
2022/06/21 06:22:57;;;;;;;7.40;2.65;;;;;;;15.57;74.22;95397.03;5051231;28;20041;-81
2022/06/21 06:25:30;;;;;;;10.80;2.40;;;;;;;15.81;74.29;95393.31;5047558;28;20041;-80
2022/06/21 06:28:27;;;;;;;7.75;2.35;;;;;;;15.77;76.16;95404.50;5034112;28;20407;-80
2022/06/21 06:31:00;;;;;;;6.68;2.38;;;;;;;16.04;73.84;95413.38;5031798;28;20112;-78
2022/06/21 06:33:33;;;;;;;7.30;2.22;;;;;;;15.94;74.05;95408.34;5032379;28;20048;-80
2022/06/21 06:36:03;;;;;;;6.55;2.30;;;;;;;15.73;74.28;95405.41;5041027;28;20293;-79
2022/06/21 06:38:30;;;;;;;6.30;2.03;;;;;;;16.13;74.65;95409.97;5052180;28;20052;-80
2022/06/21 06:41:05;;;;;;;5.45;2.20;;;;;;;16.29;73.74;95403.16;5039986;28;20050;-80
2022/06/21 06:43:38;;;;;;;4.47;2.30;;;;;;;16.37;72.89;95405.06;5033968;28;20040;-78
2022/06/21 06:46:04;;;;;;;3.75;2.08;;;;;;;16.18;74.67;95401.91;5051771;28;20044;-79
2022/06/21 06:48:39;;;;;;;5.55;2.30;;;;;;;16.37;73.96;95399.75;5049833;28;20514;-79
2022/06/21 06:51:39;;;;;;;8.68;2.30;;;;;;;16.29;74.14;95403.16;5031391;28;20028;-79
2022/06/21 06:54:14;;;;;;;6.18;2.28;;;;;;;16.32;74.00;95405.22;5034591;28;20041;-83
2022/06/21 06:56:56;;;;;;;7.55;2.35;;;;;;;16.36;74.02;95398.16;5056163;28;20050;-81
2022/06/21 06:59:24;;;;;;;10.27;2.70;;;;;;;16.43;73.07;95398.53;5046350;28;20037;-81
2022/06/21 07:02:03;;;;;;;6.38;2.40;;;;;;;16.83;73.52;95394.97;5037345;28;20041;-80
2022/06/21 07:04:35;;;;;;;6.00;2.40;;;;;;;16.93;71.73;95388.59;5051628;28;20470;-79
2022/06/21 07:07:23;;;;;;;4.88;2.40;;;;;;;17.04;71.91;95395.19;5051433;28;20048;-80
2022/06/21 07:09:53;;;;;;;9.35;2.88;;;;;;;16.87;71.30;95395.16;5041402;28;20047;-78
2022/06/21 07:12:23;;;;;;;6.95;2.50;;;;;;;16.94;72.12;95406.13;5070097;28;20043;-79
2022/06/21 07:14:52;;;;;;;5.30;2.42;;;;;;;16.79;70.51;95405.47;5058412;28;20130;-79
2022/06/21 07:17:50;;;;;;;7.93;2.45;;;;;;;17.13;70.93;95409.25;5053041;28;20102;-80
2022/06/21 07:20:35;;;;;;;5.80;2.50;;;;;;;17.23;69.68;95413.47;5028859;28;20403;-79
2022/06/21 07:23:01;;;;;;;7.25;2.33;;;;;;;17.30;69.41;95413.00;5050434;28;20048;-79
2022/06/21 07:25:36;;;;;;;7.75;2.40;;;;;;;17.26;70.24;95407.50;5036886;28;20037;-81
2022/06/21 07:28:15;;;;;;;5.90;2.50;;;;;;;17.28;70.12;95415.16;5028284;28;20045;-81
2022/06/21 07:30:44;;;;;;;7.85;2.65;;;;;;;17.11;70.89;95424.75;5045303;28;20044;-79
2022/06/21 07:33:17;;;;;;;4.18;2.42;;;;;;;17.26;70.71;95418.16;5049324;28;20120;-79
2022/06/21 07:35:55;;;;;;;9.30;2.45;;;;;;;17.42;70.17;95405.16;5049435;28;20048;-79
2022/06/21 07:38:55;;;;;;;4.35;2.40;;;;;;;17.80;70.85;95409.78;5044622;28;20490;-78
2022/06/21 07:41:26;;;;;;;5.15;2.50;;;;;;;17.48;69.89;95409.22;5050156;28;20541;-77
2022/06/21 07:44:00;;;;;;;3.88;2.30;;;;;;;17.83;69.12;95403.03;5050462;28;20037;-77
2022/06/21 07:46:51;;;;;;;6.82;2.30;;;;;;;17.91;69.62;95393.47;5030695;28;20486;-80
2022/06/21 07:49:25;;;;;;;6.68;2.38;;;;;;;17.60;70.10;95394.50;5029877;28;20112;-82
2022/06/21 07:51:56;;;;;;;6.73;2.57;;;;;;;17.62;70.49;95397.59;5038392;28;20044;-79
2022/06/21 07:54:48;;;;;;;6.35;2.70;;;;;;;17.58;70.21;95399.34;5057455;28;20053;-79
2022/06/21 07:57:19;;;;;;;6.65;2.80;;;;;;;18.25;69.15;95399.78;5029641;28;20060;-79
2022/06/21 07:59:52;;;;;;;7.00;2.53;;;;;;;18.38;66.31;95401.41;5055965;28;20045;-79
2022/06/21 08:08:35;;;;;;;5.80;2.65;;;;;;;18.45;67.79;95399.03;5047559;28;20037;-77
2022/06/21 08:11:08;;;;;;;6.75;2.88;;;;;;;17.79;66.97;95397.56;5047366;28;20104;-80
2022/06/21 08:13:34;;;;;;;7.68;2.83;;;;;;;18.23;68.04;95399.28;5067885;28;20090;-78
2022/06/21 08:16:09;;;;;;;6.63;2.80;;;;;;;18.60;67.54;95403.00;5061811;28;20044;-78
2022/06/21 08:18:51;;;;;;;9.10;2.97;;;;;;;18.32;66.16;95413.38;5066092;28;20383;-79
2022/06/21 08:21:31;;;;;;;6.85;2.80;;;;;;;18.84;66.66;95415.72;5054086;28;20056;-79
2022/06/21 08:24:21;;;;;;;10.27;3.17;;;;;;;19.13;64.05;95403.44;5037235;28;20041;-79
2022/06/21 08:27:23;;;;;;;6.53;2.80;;;;;;;19.09;62.77;95402.53;5051128;28;20052;-79
2022/06/21 08:30:21;;;;;;;6.50;2.60;;;;;;;19.23;62.50;95406.84;5048165;28;20056;-79
2022/06/21 08:32:58;;;;;;;6.50;2.58;;;;;;;19.37;61.79;95407.34;5041593;28;20043;-79
2022/06/21 08:35:45;;;;;;;12.10;2.97;;;;;;;19.07;62.87;95407.41;5032852;28;20131;-78
2022/06/21 08:38:13;;;;;;;5.18;2.78;;;;;;;19.27;60.17;95410.41;5044895;28;20037;-79
2022/06/21 08:40:57;;;;;;;5.95;3.28;;;;;;;19.20;60.61;95414.38;5053051;28;20431;-79
2022/06/21 08:43:32;;;;;;;8.05;2.92;;;;;;;19.24;58.72;95411.03;5052243;28;20041;-77
2022/06/21 08:46:03;;;;;;;6.15;2.67;;;;;;;19.38;59.26;95414.22;5059905;28;20037;-77
2022/06/21 08:48:59;;;;;;;10.50;3.05;;;;;;;19.40;59.30;95414.66;5052775;28;20049;-76
2022/06/21 08:52:26;;;;;;;10.75;3.28;;;;;;;19.36;58.60;95411.09;5050667;28;20121;-77
2022/06/21 08:55:00;;;;;;;6.63;3.33;;;;;;;19.32;56.32;95415.53;4950777;28;20047;-78
2022/06/21 08:57:25;;;;;;;;;;;;;;;19.40;56.87;95412.00;5037029;28;20048;-78
2022/06/21 09:00:03;;;;;;;7.13;3.03;;;;;;;19.51;56.66;95423.84;5038181;28;19920;-78
2022/06/21 09:02:57;;;;;;;10.43;3.28;;;;;;;19.88;55.43;95421.28;5051406;28;20060;-78
2022/06/21 09:05:37;;;;;;;8.05;3.35;;;;;;;19.21;57.28;95421.25;5054791;28;20834;-78
2022/06/21 09:08:15;;;;;;;7.93;3.25;;;;;;;19.30;56.42;95423.09;5051843;28;20079;-78
2022/06/21 09:11:06;;;;;;;10.05;3.35;;;;;;;19.67;56.20;95415.22;5047992;28;20062;-79
2022/06/21 09:13:50;;;;;;;9.88;3.38;;;;;;;19.68;55.26;95416.75;5035672;28;20044;-78
2022/06/21 09:16:19;;;;;;;6.20;2.85;;;;;;;19.69;56.22;95407.63;5065755;28;20033;-78
2022/06/21 09:18:51;;;;;;;7.60;3.13;;;;;;;20.51;55.24;95420.22;5053300;28;20029;-78
2022/06/21 09:21:50;;;;;;;7.85;3.22;;;;;;;20.57;56.32;95418.88;5044143;28;20116;-78
2022/06/21 09:24:41;;;;;;;9.85;3.05;;;;;;;20.12;55.09;95414.41;5045229;28;20510;-79
2022/06/21 09:27:28;;;;;;;6.18;3.28;;;;;;;20.58;53.75;95415.06;5043407;28;20482;-79
2022/06/21 09:30:18;;;;;;;9.80;3.40;;;;;;;20.27;54.36;95401.50;5025301;28;20068;-78
2022/06/21 09:32:58;;;;;;;13.50;3.78;;;;;;;20.13;54.96;95410.63;5039532;28;20048;-78
2022/06/21 09:36:02;;;;;;;7.63;3.30;;;;;;;20.68;54.26;95407.75;5052636;28;20037;-79
2022/06/21 09:38:47;;;;;;;6.93;3.35;;;;;;;20.68;54.83;95407.75;5025722;28;20049;-79
2022/06/21 09:41:20;;;;;;;5.18;3.15;;;;;;;20.83;56.68;95409.75;5051081;28;20122;-78
2022/06/21 09:43:54;;;;;;;10.80;3.50;;;;;;;20.42;56.15;95395.50;5037250;28;20112;-78
2022/06/21 09:46:39;;;;;;;5.93;3.35;;;;;;;20.94;56.50;95394.75;5035814;28;20160;-77
2022/06/21 09:49:16;;;;;;;5.10;3.20;;;;;;;21.11;53.45;95392.94;5037218;28;20045;-79
2022/06/21 09:51:56;;;;;;;7.47;3.20;;;;;;;20.58;54.46;95393.69;5051293;28;20041;-79
2022/06/21 09:54:39;;;;;;;12.70;3.50;;;;;;;20.50;55.45;95397.28;5052352;28;20033;-79
2022/06/21 09:57:16;;;;;;;6.47;3.72;;;;;;;20.59;55.51;95389.91;5033523;28;20445;-79
2022/06/21 10:00:08;;;;;;;8.82;3.60;;;;;;;20.71;56.08;95388.38;5043860;28;20098;-79
2022/06/21 10:02:39;;;;;;;7.43;3.08;;;;;;;21.35;56.77;95396.63;5048510;28;20040;-79
2022/06/21 10:05:20;;;;;;;8.75;3.55;;;;;;;20.71;54.23;95391.03;5052368;28;20045;-78
2022/06/21 10:08:01;;;;;;;6.53;3.30;;;;;;;20.47;55.48;95391.81;5049734;28;20041;-79
2022/06/21 10:10:38;;;;;;;7.40;3.53;;;;;;;20.46;56.63;95387.56;5041013;28;20033;-78
2022/06/21 10:13:40;;;;;;;8.02;3.53;;;;;;;21.02;57.34;95378.91;5032625;28;20045;-79
2022/06/21 10:16:36;;;;;;;8.45;3.80;;;;;;;20.89;57.59;95381.63;5035385;28;20068;-78
2022/06/21 10:19:36;;;;;;;7.93;3.75;;;;;;;20.78;56.60;95385.91;5035649;28;20047;-79
2022/06/21 10:22:27;;;;;;;11.88;3.85;;;;;;;21.79;55.48;95385.94;5035475;28;20045;-79
2022/06/21 10:25:32;;;;;;;7.22;4.13;;;;;;;21.35;57.46;95375.22;5032543;28;20037;-79
2022/06/21 10:28:21;;;;;;;7.25;3.72;;;;;;;22.04;54.99;95367.03;5036148;28;20043;-79
2022/06/21 10:31:08;;;;;;;9.77;3.90;;;;;;;22.31;54.44;95366.16;5045244;28;20041;-80
2022/06/21 10:33:54;;;;;;;9.85;4.40;;;;;;;22.00;56.78;95366.19;5031021;28;20072;-79
2022/06/21 10:36:51;;;;;;;7.50;4.25;;;;;;;22.00;56.60;95377.66;5038192;28;20045;-79
2022/06/21 10:39:43;;;;;;;8.15;4.93;;;;;;;22.34;57.90;95374.63;5043407;28;20120;-80
2022/06/21 10:45:42;;;;;;;7.40;4.50;;;;;;;22.83;54.68;95372.28;5068730;28;20418;-80
2022/06/21 10:48:36;;;;;;;7.68;4.13;;;;;;;23.74;54.56;95366.72;5056019;28;20049;-80
2022/06/21 10:51:11;;;;;;;5.80;4.43;;;;;;;24.09;52.71;95359.63;5054977;28;20700;-80
2022/06/21 10:53:37;;;;;;;8.50;4.68;;;;;;;23.56;52.67;95361.03;5055357;28;20033;-80
2022/06/21 10:59:06;;;;;;;7.20;4.65;;;;;;;23.69;54.86;95348.19;5051506;28;20037;-80
2022/06/21 11:02:13;;;;;;;7.05;4.70;;;;;;;24.18;51.68;95346.72;5052147;28;20064;-81
2022/06/21 11:04:46;;;;;;;6.75;4.60;;;;;;;24.51;52.23;95358.69;5042568;28;20640;-80
2022/06/21 11:07:21;;;;;;;6.10;4.53;;;;;;;24.56;53.19;95340.31;5050590;28;20036;-80
2022/06/21 11:10:24;;;;;;;12.73;5.03;;;;;;;24.99;51.66;95344.75;5023368;28;20045;-80
2022/06/21 11:12:53;;;;;;;8.82;4.22;;;;;;;24.99;52.60;95334.75;5027614;28;20049;-81
2022/06/21 11:15:35;;;;;;;8.50;4.82;;;;;;;25.25;50.33;95327.72;5054964;28;20045;-82
2022/06/21 11:18:08;;;;;;;7.45;5.00;;;;;;;24.55;51.74;95327.25;5027191;28;20554;-81
2022/06/21 11:20:46;;;;;;;9.27;4.97;;;;;;;24.41;52.58;95327.06;5053825;28;20045;-82
2022/06/21 11:23:49;;;;;;;7.50;4.40;;;;;;;25.24;50.55;95315.41;5024823;28;20154;-81
2022/06/21 11:26:44;;;;;;;8.00;4.43;;;;;;;25.50;50.05;95319.16;5039017;28;20144;-79
2022/06/21 11:29:24;;;;;;;7.78;4.35;;;;;;;25.66;49.45;95306.22;5041258;28;20037;-79
2022/06/21 11:31:55;;;;;;;6.07;4.00;;;;;;;27.05;46.51;95315.56;5026051;28;20041;-78
2022/06/21 11:34:45;;;;;;;8.25;4.15;;;;;;;27.08;47.20;95314.81;5032375;28;20037;-79
2022/06/21 11:37:29;;;;;;;7.97;4.82;;;;;;;26.50;47.63;95307.59;5037237;28;20087;-80
2022/06/21 11:40:29;;;;;;;9.68;4.57;;;;;;;25.39;49.70;95309.03;5040892;28;20037;-81
2022/06/21 11:42:58;;;;;;;7.65;4.43;;;;;;;26.87;46.08;95309.34;5050121;28;20037;-79
2022/06/21 11:45:30;;;;;;;9.85;4.50;;;;;;;27.16;46.81;95304.03;5036897;28;20051;-79
2022/06/21 11:48:23;;;;;;;7.28;4.70;;;;;;;27.68;45.19;95301.81;5037023;28;20048;-80
2022/06/21 11:51:10;;;;;;;6.68;4.47;;;;;;;28.16;44.14;95297.97;5007575;28;20052;-79
2022/06/21 11:53:57;;;;;;;7.72;5.10;;;;;;;25.32;50.08;95298.19;5038438;28;20047;-80
2022/06/21 11:56:49;;;;;;;8.15;4.75;;;;;;;26.63;48.47;95279.88;5064718;28;20502;-80
2022/06/21 11:59:39;;;;;;;8.18;4.60;;;;;;;26.79;46.40;95271.50;5055739;28;20086;-80
2022/06/21 12:02:23;;;;;;;6.93;4.53;;;;;;;27.96;44.76;95257.00;5039565;28;20123;-78
2022/06/21 12:05:09;;;;;;;6.60;4.50;;;;;;;28.35;45.50;95256.94;5049099;28;20107;-78
2022/06/21 12:07:54;;;;;;;8.25;4.57;;;;;;;26.48;46.72;95261.31;5044473;28;20037;-78
2022/06/21 12:10:48;;;;;;;8.77;4.90;;;;;;;27.56;45.23;95235.41;5047990;28;20061;-78
2022/06/21 12:13:27;;;;;;;8.43;5.60;;;;;;;26.52;46.96;95235.13;5044842;28;20498;-79
2022/06/21 12:16:17;;;;;;;7.55;4.30;;;;;;;28.40;43.69;95236.81;5050082;28;20037;-79
2022/06/21 12:18:51;;;;;;;8.80;4.80;;;;;;;28.40;42.79;95242.22;5040844;28;20847;-79
2022/06/21 12:21:21;;;;;;;9.20;4.90;;;;;;;27.94;43.79;95232.28;5073133;28;20040;-81
2022/06/21 12:24:00;;;;;;;8.13;4.50;;;;;;;27.58;44.89;95232.31;5067371;28;20052;-79
2022/06/21 12:26:29;;;;;;;6.68;4.60;;;;;;;29.08;43.79;95238.47;5057786;28;20041;-79
2022/06/21 12:28:59;;;;;;;11.75;4.70;;;;;;;30.06;40.38;95246.66;5031097;28;20519;-80
2022/06/21 12:31:29;;;;;;;9.02;4.70;;;;;;;29.43;41.60;95249.50;5043464;28;20042;-79
2022/06/21 12:33:59;;;;;;;9.38;4.53;;;;;;;27.75;43.78;95234.22;5069668;28;20458;-80
2022/06/21 12:36:30;;;;;;;7.43;4.95;;;;;;;27.02;45.87;95224.50;5049615;28;20056;-79
2022/06/21 12:39:01;;;;;;;8.30;4.93;;;;;;;27.62;43.86;95206.06;5045841;28;20037;-79
2022/06/21 12:41:38;;;;;;;7.35;4.95;;;;;;;27.66;44.68;95190.59;5032959;28;20045;-79
2022/06/21 12:44:20;;;;;;;8.73;4.82;;;;;;;29.02;41.90;95161.50;5059797;28;20044;-79
2022/06/21 12:47:04;;;;;;;5.93;4.07;;;;;;;30.18;39.46;95145.75;5030910;28;20037;-80
2022/06/21 12:49:48;;;;;;;5.97;4.10;;;;;;;30.26;39.53;95161.94;5051357;28;20052;-80
2022/06/21 12:52:22;;;;;;;8.43;4.03;;;;;;;30.48;39.09;95184.97;5037205;28;20047;-79
2022/06/21 12:55:07;;;;;;;6.70;4.05;;;;;;;30.50;38.39;95182.63;5063589;28;20048;-79
2022/06/21 12:57:45;;;;;;;8.45;4.05;;;;;;;30.31;39.13;95194.06;5037748;28;20045;-79
2022/06/21 13:00:24;;;;;;;8.38;4.30;;;;;;;29.59;40.48;95192.06;5049160;28;20561;-79
2022/06/21 13:03:12;;;;;;;7.75;4.45;;;;;;;28.97;41.24;95180.88;5049909;28;20422;-79
2022/06/21 13:06:11;;;;;;;11.05;4.20;;;;;;;28.76;41.01;95182.56;5062153;28;20052;-79
2022/06/21 13:08:45;;;;;;;13.55;4.85;;;;;;;29.49;41.41;95180.91;5055787;28;20052;-79
2022/06/21 13:11:26;;;;;;;;;;;;;;;29.30;41.19;95170.63;5046697;28;20044;-80
2022/06/21 13:14:16;;;;;;;7.72;4.78;;;;;;;29.36;40.05;95179.84;5069826;28;19927;-79